sensor_id;sensor_type;location;lat;lon;timestamp;P1;durP1;ratioP1;P2;durP2;ratioP2
4806;SDS011;2417;52.482;13.432;2024-02-28T00:01:49;59.27;;;24.17;;
4806;SDS011;2417;52.482;13.432;2024-02-28T00:04:19;67.30;;;28.43;;
4806;SDS011;2417;52.482;13.432;2024-02-28T00:06:47;58.93;;;25.80;;
4806;SDS011;2417;52.482;13.432;2024-02-28T00:09:16;57.67;;;23.07;;
4806;SDS011;2417;52.482;13.432;2024-02-28T00:11:44;65.40;;;28.23;;
4806;SDS011;2417;52.482;13.432;2024-02-28T00:14:13;84.13;;;35.63;;
4806;SDS011;2417;52.482;13.432;2024-02-28T00:16:41;115.97;;;50.63;;
4806;SDS011;2417;52.482;13.432;2024-02-28T00:19:09;95.17;;;40.53;;
4806;SDS011;2417;52.482;13.432;2024-02-28T00:21:41;58.07;;;25.40;;
4806;SDS011;2417;52.482;13.432;2024-02-28T00:24:09;90.37;;;37.57;;
4806;SDS011;2417;52.482;13.432;2024-02-28T00:26:40;58.53;;;26.53;;
4806;SDS011;2417;52.482;13.432;2024-02-28T00:29:08;79.27;;;33.57;;
4806;SDS011;2417;52.482;13.432;2024-02-28T00:31:35;51.77;;;22.83;;
4806;SDS011;2417;52.482;13.432;2024-02-28T00:34:03;74.40;;;33.83;;
4806;SDS011;2417;52.482;13.432;2024-02-28T00:36:33;85.13;;;38.07;;
4806;SDS011;2417;52.482;13.432;2024-02-28T00:39:19;81.90;;;34.93;;
4806;SDS011;2417;52.482;13.432;2024-02-28T00:41:48;53.73;;;25.40;;
4806;SDS011;2417;52.482;13.432;2024-02-28T00:44:15;51.50;;;19.80;;
4806;SDS011;2417;52.482;13.432;2024-02-28T00:46:43;43.27;;;17.30;;
4806;SDS011;2417;52.482;13.432;2024-02-28T00:49:13;41.53;;;18.23;;
4806;SDS011;2417;52.482;13.432;2024-02-28T00:51:41;40.70;;;18.80;;
4806;SDS011;2417;52.482;13.432;2024-02-28T00:54:09;50.03;;;23.87;;
4806;SDS011;2417;52.482;13.432;2024-02-28T00:56:39;46.80;;;20.70;;
4806;SDS011;2417;52.482;13.432;2024-02-28T00:59:06;46.90;;;20.27;;
4806;SDS011;2417;52.482;13.432;2024-02-28T01:01:37;51.83;;;21.37;;
4806;SDS011;2417;52.482;13.432;2024-02-28T01:04:05;68.03;;;29.03;;
4806;SDS011;2417;52.482;13.432;2024-02-28T01:06:34;32.83;;;14.97;;
4806;SDS011;2417;52.482;13.432;2024-02-28T01:09:03;45.83;;;20.93;;
4806;SDS011;2417;52.482;13.432;2024-02-28T01:11:31;43.97;;;17.83;;
4806;SDS011;2417;52.482;13.432;2024-02-28T01:14:00;47.13;;;19.83;;
4806;SDS011;2417;52.482;13.432;2024-02-28T01:16:28;43.30;;;18.67;;
4806;SDS011;2417;52.482;13.432;2024-02-28T01:18:56;34.73;;;15.67;;
4806;SDS011;2417;52.482;13.432;2024-02-28T01:21:25;35.00;;;16.60;;
4806;SDS011;2417;52.482;13.432;2024-02-28T01:23:53;42.63;;;19.87;;
4806;SDS011;2417;52.482;13.432;2024-02-28T01:26:22;31.90;;;15.23;;
4806;SDS011;2417;52.482;13.432;2024-02-28T01:28:50;57.70;;;25.30;;
4806;SDS011;2417;52.482;13.432;2024-02-28T01:31:19;46.77;;;20.40;;
4806;SDS011;2417;52.482;13.432;2024-02-28T01:33:47;50.93;;;22.03;;
4806;SDS011;2417;52.482;13.432;2024-02-28T01:36:18;30.33;;;14.70;;
4806;SDS011;2417;52.482;13.432;2024-02-28T01:38:46;50.17;;;24.90;;
4806;SDS011;2417;52.482;13.432;2024-02-28T01:41:15;43.97;;;18.00;;
4806;SDS011;2417;52.482;13.432;2024-02-28T01:43:43;44.37;;;19.43;;
4806;SDS011;2417;52.482;13.432;2024-02-28T01:46:16;37.87;;;18.00;;
4806;SDS011;2417;52.482;13.432;2024-02-28T01:48:46;39.23;;;18.00;;
4806;SDS011;2417;52.482;13.432;2024-02-28T01:51:14;41.20;;;17.67;;
4806;SDS011;2417;52.482;13.432;2024-02-28T01:53:43;36.20;;;16.83;;
4806;SDS011;2417;52.482;13.432;2024-02-28T01:56:12;44.03;;;19.83;;
4806;SDS011;2417;52.482;13.432;2024-02-28T01:58:41;43.60;;;19.63;;
4806;SDS011;2417;52.482;13.432;2024-02-28T02:01:09;46.80;;;22.00;;
4806;SDS011;2417;52.482;13.432;2024-02-28T02:03:37;35.60;;;15.57;;
4806;SDS011;2417;52.482;13.432;2024-02-28T02:06:07;66.70;;;29.23;;
4806;SDS011;2417;52.482;13.432;2024-02-28T02:08:36;33.67;;;15.40;;
4806;SDS011;2417;52.482;13.432;2024-02-28T02:11:04;45.07;;;19.90;;
4806;SDS011;2417;52.482;13.432;2024-02-28T02:13:32;54.67;;;24.57;;
4806;SDS011;2417;52.482;13.432;2024-02-28T02:16:01;42.90;;;20.00;;
4806;SDS011;2417;52.482;13.432;2024-02-28T02:18:29;45.27;;;19.70;;
4806;SDS011;2417;52.482;13.432;2024-02-28T02:20:59;68.57;;;31.93;;
4806;SDS011;2417;52.482;13.432;2024-02-28T02:23:30;42.93;;;20.50;;
4806;SDS011;2417;52.482;13.432;2024-02-28T02:25:58;46.67;;;19.83;;
4806;SDS011;2417;52.482;13.432;2024-02-28T02:28:26;47.70;;;22.20;;
4806;SDS011;2417;52.482;13.432;2024-02-28T02:30:54;42.70;;;19.50;;
4806;SDS011;2417;52.482;13.432;2024-02-28T02:33:22;77.80;;;33.60;;
4806;SDS011;2417;52.482;13.432;2024-02-28T02:35:51;65.50;;;28.10;;
4806;SDS011;2417;52.482;13.432;2024-02-28T02:38:19;45.83;;;21.80;;
4806;SDS011;2417;52.482;13.432;2024-02-28T02:40:49;51.30;;;21.57;;
4806;SDS011;2417;52.482;13.432;2024-02-28T02:43:17;55.27;;;23.23;;
4806;SDS011;2417;52.482;13.432;2024-02-28T02:45:45;43.33;;;18.93;;
4806;SDS011;2417;52.482;13.432;2024-02-28T02:48:13;44.23;;;18.93;;
4806;SDS011;2417;52.482;13.432;2024-02-28T02:50:41;53.27;;;23.83;;
4806;SDS011;2417;52.482;13.432;2024-02-28T02:53:09;70.87;;;31.93;;
4806;SDS011;2417;52.482;13.432;2024-02-28T02:55:38;59.90;;;26.07;;
4806;SDS011;2417;52.482;13.432;2024-02-28T02:58:07;39.50;;;18.70;;
4806;SDS011;2417;52.482;13.432;2024-02-28T03:00:35;46.87;;;21.83;;
4806;SDS011;2417;52.482;13.432;2024-02-28T03:03:03;31.90;;;15.37;;
4806;SDS011;2417;52.482;13.432;2024-02-28T03:05:32;35.43;;;16.00;;
4806;SDS011;2417;52.482;13.432;2024-02-28T03:08:00;30.67;;;13.90;;
4806;SDS011;2417;52.482;13.432;2024-02-28T03:10:28;36.40;;;17.90;;
4806;SDS011;2417;52.482;13.432;2024-02-28T03:12:56;37.00;;;16.80;;
4806;SDS011;2417;52.482;13.432;2024-02-28T03:15:25;31.20;;;14.47;;
4806;SDS011;2417;52.482;13.432;2024-02-28T03:17:53;27.27;;;12.33;;
4806;SDS011;2417;52.482;13.432;2024-02-28T03:20:21;29.53;;;12.53;;
4806;SDS011;2417;52.482;13.432;2024-02-28T03:22:51;27.33;;;13.73;;
4806;SDS011;2417;52.482;13.432;2024-02-28T03:25:19;29.93;;;13.87;;
4806;SDS011;2417;52.482;13.432;2024-02-28T03:27:46;36.07;;;17.10;;
4806;SDS011;2417;52.482;13.432;2024-02-28T03:30:15;24.03;;;12.27;;
4806;SDS011;2417;52.482;13.432;2024-02-28T03:32:44;22.57;;;12.00;;
4806;SDS011;2417;52.482;13.432;2024-02-28T03:35:12;24.10;;;12.37;;
4806;SDS011;2417;52.482;13.432;2024-02-28T03:37:40;33.90;;;15.87;;
4806;SDS011;2417;52.482;13.432;2024-02-28T03:40:08;27.13;;;13.43;;
4806;SDS011;2417;52.482;13.432;2024-02-28T03:42:36;24.10;;;11.47;;
4806;SDS011;2417;52.482;13.432;2024-02-28T03:45:04;27.67;;;13.47;;
4806;SDS011;2417;52.482;13.432;2024-02-28T03:47:32;26.10;;;14.33;;
4806;SDS011;2417;52.482;13.432;2024-02-28T03:50:02;21.70;;;11.30;;
4806;SDS011;2417;52.482;13.432;2024-02-28T03:52:30;25.00;;;12.63;;
4806;SDS011;2417;52.482;13.432;2024-02-28T03:54:58;21.17;;;12.00;;
4806;SDS011;2417;52.482;13.432;2024-02-28T03:57:26;20.17;;;11.07;;
4806;SDS011;2417;52.482;13.432;2024-02-28T03:59:54;31.33;;;16.00;;
4806;SDS011;2417;52.482;13.432;2024-02-28T04:02:21;25.27;;;12.57;;
4806;SDS011;2417;52.482;13.432;2024-02-28T04:04:49;32.70;;;15.00;;
4806;SDS011;2417;52.482;13.432;2024-02-28T04:07:19;20.07;;;9.50;;
4806;SDS011;2417;52.482;13.432;2024-02-28T04:09:47;30.37;;;14.80;;
4806;SDS011;2417;52.482;13.432;2024-02-28T04:12:15;25.60;;;12.50;;
4806;SDS011;2417;52.482;13.432;2024-02-28T04:14:42;18.57;;;8.90;;
4806;SDS011;2417;52.482;13.432;2024-02-28T04:17:12;20.03;;;10.53;;
4806;SDS011;2417;52.482;13.432;2024-02-28T04:19:39;19.07;;;9.23;;
4806;SDS011;2417;52.482;13.432;2024-02-28T04:22:07;19.87;;;9.37;;
4806;SDS011;2417;52.482;13.432;2024-02-28T04:24:37;13.80;;;8.63;;
4806;SDS011;2417;52.482;13.432;2024-02-28T04:27:05;15.73;;;7.20;;
4806;SDS011;2417;52.482;13.432;2024-02-28T04:29:32;13.73;;;6.87;;
4806;SDS011;2417;52.482;13.432;2024-02-28T04:32:00;15.43;;;8.30;;
4806;SDS011;2417;52.482;13.432;2024-02-28T04:34:28;15.93;;;8.70;;
4806;SDS011;2417;52.482;13.432;2024-02-28T04:36:56;11.87;;;6.33;;
4806;SDS011;2417;52.482;13.432;2024-02-28T04:39:24;19.70;;;9.77;;
4806;SDS011;2417;52.482;13.432;2024-02-28T04:41:53;27.13;;;13.50;;
4806;SDS011;2417;52.482;13.432;2024-02-28T04:44:21;12.70;;;7.03;;
4806;SDS011;2417;52.482;13.432;2024-02-28T04:46:49;16.53;;;8.43;;
4806;SDS011;2417;52.482;13.432;2024-02-28T04:49:17;13.73;;;8.13;;
4806;SDS011;2417;52.482;13.432;2024-02-28T04:51:45;15.80;;;8.00;;
4806;SDS011;2417;52.482;13.432;2024-02-28T04:54:14;15.00;;;7.33;;
4806;SDS011;2417;52.482;13.432;2024-02-28T04:56:41;16.33;;;9.30;;
4806;SDS011;2417;52.482;13.432;2024-02-28T04:59:12;13.53;;;6.93;;
4806;SDS011;2417;52.482;13.432;2024-02-28T05:01:42;26.17;;;12.60;;
4806;SDS011;2417;52.482;13.432;2024-02-28T05:04:12;16.57;;;9.60;;
4806;SDS011;2417;52.482;13.432;2024-02-28T05:06:40;20.47;;;10.77;;
4806;SDS011;2417;52.482;13.432;2024-02-28T05:09:08;16.03;;;8.30;;
4806;SDS011;2417;52.482;13.432;2024-02-28T05:11:36;20.00;;;8.80;;
4806;SDS011;2417;52.482;13.432;2024-02-28T05:14:04;15.17;;;7.93;;
4806;SDS011;2417;52.482;13.432;2024-02-28T05:16:33;17.17;;;8.43;;
4806;SDS011;2417;52.482;13.432;2024-02-28T05:19:01;19.10;;;9.40;;
4806;SDS011;2417;52.482;13.432;2024-02-28T05:21:30;20.03;;;10.90;;
4806;SDS011;2417;52.482;13.432;2024-02-28T05:23:59;20.20;;;9.50;;
4806;SDS011;2417;52.482;13.432;2024-02-28T05:26:27;15.13;;;7.90;;
4806;SDS011;2417;52.482;13.432;2024-02-28T05:28:55;16.10;;;8.30;;
4806;SDS011;2417;52.482;13.432;2024-02-28T05:31:24;17.67;;;9.33;;
4806;SDS011;2417;52.482;13.432;2024-02-28T05:33:54;14.27;;;7.90;;
4806;SDS011;2417;52.482;13.432;2024-02-28T05:36:23;15.60;;;8.10;;
4806;SDS011;2417;52.482;13.432;2024-02-28T05:38:51;11.97;;;6.47;;
4806;SDS011;2417;52.482;13.432;2024-02-28T05:41:19;15.40;;;8.77;;
4806;SDS011;2417;52.482;13.432;2024-02-28T05:43:47;19.90;;;8.30;;
4806;SDS011;2417;52.482;13.432;2024-02-28T05:46:16;12.20;;;7.20;;
4806;SDS011;2417;52.482;13.432;2024-02-28T05:48:44;11.93;;;6.77;;
4806;SDS011;2417;52.482;13.432;2024-02-28T05:51:14;15.30;;;8.23;;
4806;SDS011;2417;52.482;13.432;2024-02-28T05:53:42;12.87;;;6.97;;
4806;SDS011;2417;52.482;13.432;2024-02-28T05:56:10;16.63;;;8.60;;
4806;SDS011;2417;52.482;13.432;2024-02-28T05:58:40;17.47;;;9.10;;
4806;SDS011;2417;52.482;13.432;2024-02-28T06:01:08;13.57;;;6.80;;
4806;SDS011;2417;52.482;13.432;2024-02-28T06:03:38;11.00;;;6.73;;
4806;SDS011;2417;52.482;13.432;2024-02-28T06:06:06;10.50;;;5.83;;
4806;SDS011;2417;52.482;13.432;2024-02-28T06:08:37;13.63;;;6.83;;
4806;SDS011;2417;52.482;13.432;2024-02-28T06:11:06;14.77;;;6.50;;
4806;SDS011;2417;52.482;13.432;2024-02-28T06:13:34;12.07;;;6.87;;
4806;SDS011;2417;52.482;13.432;2024-02-28T06:16:02;14.37;;;7.93;;
4806;SDS011;2417;52.482;13.432;2024-02-28T06:18:31;19.27;;;10.67;;
4806;SDS011;2417;52.482;13.432;2024-02-28T06:21:00;18.00;;;9.23;;
4806;SDS011;2417;52.482;13.432;2024-02-28T06:23:28;21.83;;;11.67;;
4806;SDS011;2417;52.482;13.432;2024-02-28T06:25:57;21.40;;;11.30;;
4806;SDS011;2417;52.482;13.432;2024-02-28T06:28:27;23.83;;;12.37;;
4806;SDS011;2417;52.482;13.432;2024-02-28T06:30:54;20.83;;;11.00;;
4806;SDS011;2417;52.482;13.432;2024-02-28T06:33:23;23.43;;;10.90;;
4806;SDS011;2417;52.482;13.432;2024-02-28T06:35:51;21.93;;;12.60;;
4806;SDS011;2417;52.482;13.432;2024-02-28T06:38:19;23.83;;;12.10;;
4806;SDS011;2417;52.482;13.432;2024-02-28T06:40:47;27.30;;;14.23;;
4806;SDS011;2417;52.482;13.432;2024-02-28T06:43:16;28.33;;;12.50;;
4806;SDS011;2417;52.482;13.432;2024-02-28T06:45:44;22.93;;;11.60;;
4806;SDS011;2417;52.482;13.432;2024-02-28T06:48:12;26.80;;;13.07;;
4806;SDS011;2417;52.482;13.432;2024-02-28T06:50:45;27.53;;;13.53;;
4806;SDS011;2417;52.482;13.432;2024-02-28T06:53:12;29.53;;;14.70;;
4806;SDS011;2417;52.482;13.432;2024-02-28T06:55:40;29.10;;;15.63;;
4806;SDS011;2417;52.482;13.432;2024-02-28T06:58:09;28.90;;;13.30;;
4806;SDS011;2417;52.482;13.432;2024-02-28T07:00:37;21.03;;;12.33;;
4806;SDS011;2417;52.482;13.432;2024-02-28T07:03:05;22.40;;;11.60;;
4806;SDS011;2417;52.482;13.432;2024-02-28T07:05:33;25.83;;;13.73;;
4806;SDS011;2417;52.482;13.432;2024-02-28T07:08:01;22.77;;;12.50;;
4806;SDS011;2417;52.482;13.432;2024-02-28T07:10:29;26.47;;;13.60;;
4806;SDS011;2417;52.482;13.432;2024-02-28T07:12:57;23.73;;;12.97;;
4806;SDS011;2417;52.482;13.432;2024-02-28T07:15:26;19.07;;;11.50;;
4806;SDS011;2417;52.482;13.432;2024-02-28T07:17:55;21.00;;;12.47;;
4806;SDS011;2417;52.482;13.432;2024-02-28T07:20:23;21.47;;;12.23;;
4806;SDS011;2417;52.482;13.432;2024-02-28T07:22:51;24.77;;;12.50;;
4806;SDS011;2417;52.482;13.432;2024-02-28T07:25:19;22.83;;;12.00;;
4806;SDS011;2417;52.482;13.432;2024-02-28T07:27:49;24.30;;;13.20;;
4806;SDS011;2417;52.482;13.432;2024-02-28T07:30:17;23.20;;;12.17;;
4806;SDS011;2417;52.482;13.432;2024-02-28T07:32:45;23.53;;;12.90;;
4806;SDS011;2417;52.482;13.432;2024-02-28T07:35:18;16.90;;;9.73;;
4806;SDS011;2417;52.482;13.432;2024-02-28T07:37:47;20.40;;;11.00;;
4806;SDS011;2417;52.482;13.432;2024-02-28T07:40:16;20.20;;;10.27;;
4806;SDS011;2417;52.482;13.432;2024-02-28T07:42:45;16.33;;;9.43;;
4806;SDS011;2417;52.482;13.432;2024-02-28T07:45:13;19.87;;;10.30;;
4806;SDS011;2417;52.482;13.432;2024-02-28T07:47:42;18.80;;;10.63;;
4806;SDS011;2417;52.482;13.432;2024-02-28T07:50:10;17.43;;;9.80;;
4806;SDS011;2417;52.482;13.432;2024-02-28T07:52:39;21.47;;;11.40;;
4806;SDS011;2417;52.482;13.432;2024-02-28T07:55:07;21.60;;;11.10;;
4806;SDS011;2417;52.482;13.432;2024-02-28T07:57:35;19.27;;;11.40;;
4806;SDS011;2417;52.482;13.432;2024-02-28T08:00:06;25.20;;;13.67;;
4806;SDS011;2417;52.482;13.432;2024-02-28T08:02:40;25.57;;;14.00;;
4806;SDS011;2417;52.482;13.432;2024-02-28T08:05:08;22.13;;;11.80;;
4806;SDS011;2417;52.482;13.432;2024-02-28T08:07:36;22.23;;;12.40;;
4806;SDS011;2417;52.482;13.432;2024-02-28T08:10:06;21.10;;;10.37;;
4806;SDS011;2417;52.482;13.432;2024-02-28T08:12:37;16.70;;;10.00;;
4806;SDS011;2417;52.482;13.432;2024-02-28T08:15:05;19.87;;;9.57;;
4806;SDS011;2417;52.482;13.432;2024-02-28T08:17:33;14.93;;;9.27;;
4806;SDS011;2417;52.482;13.432;2024-02-28T08:20:01;22.70;;;12.50;;
4806;SDS011;2417;52.482;13.432;2024-02-28T08:22:31;17.33;;;10.73;;
4806;SDS011;2417;52.482;13.432;2024-02-28T08:25:00;16.10;;;9.70;;
4806;SDS011;2417;52.482;13.432;2024-02-28T08:27:30;15.43;;;9.00;;
4806;SDS011;2417;52.482;13.432;2024-02-28T08:29:58;16.60;;;9.77;;
4806;SDS011;2417;52.482;13.432;2024-02-28T08:32:26;16.53;;;9.87;;
4806;SDS011;2417;52.482;13.432;2024-02-28T08:34:54;14.30;;;8.53;;
4806;SDS011;2417;52.482;13.432;2024-02-28T08:37:24;15.37;;;8.90;;
4806;SDS011;2417;52.482;13.432;2024-02-28T08:39:54;15.77;;;8.60;;
4806;SDS011;2417;52.482;13.432;2024-02-28T08:42:24;14.57;;;8.03;;
4806;SDS011;2417;52.482;13.432;2024-02-28T08:44:54;22.97;;;10.30;;
4806;SDS011;2417;52.482;13.432;2024-02-28T08:47:22;17.43;;;9.20;;
4806;SDS011;2417;52.482;13.432;2024-02-28T08:49:50;18.87;;;9.77;;
4806;SDS011;2417;52.482;13.432;2024-02-28T08:52:18;18.93;;;10.27;;
4806;SDS011;2417;52.482;13.432;2024-02-28T08:54:46;20.03;;;10.47;;
4806;SDS011;2417;52.482;13.432;2024-02-28T08:57:16;14.63;;;8.47;;
4806;SDS011;2417;52.482;13.432;2024-02-28T08:59:44;17.30;;;8.20;;
4806;SDS011;2417;52.482;13.432;2024-02-28T09:02:15;16.10;;;9.47;;
4806;SDS011;2417;52.482;13.432;2024-02-28T09:04:43;19.27;;;10.80;;
4806;SDS011;2417;52.482;13.432;2024-02-28T09:07:12;22.87;;;12.50;;
4806;SDS011;2417;52.482;13.432;2024-02-28T09:09:41;22.50;;;13.10;;
4806;SDS011;2417;52.482;13.432;2024-02-28T09:12:10;23.63;;;13.47;;
4806;SDS011;2417;52.482;13.432;2024-02-28T09:14:37;17.80;;;10.13;;
4806;SDS011;2417;52.482;13.432;2024-02-28T09:17:05;17.50;;;9.53;;
4806;SDS011;2417;52.482;13.432;2024-02-28T09:19:36;18.57;;;10.43;;
4806;SDS011;2417;52.482;13.432;2024-02-28T09:22:04;18.90;;;9.83;;
4806;SDS011;2417;52.482;13.432;2024-02-28T09:24:32;16.87;;;8.93;;
4806;SDS011;2417;52.482;13.432;2024-02-28T09:27:00;16.57;;;8.93;;
4806;SDS011;2417;52.482;13.432;2024-02-28T09:29:28;20.10;;;10.57;;
4806;SDS011;2417;52.482;13.432;2024-02-28T09:31:56;31.60;;;12.40;;
4806;SDS011;2417;52.482;13.432;2024-02-28T09:34:24;25.10;;;12.87;;
4806;SDS011;2417;52.482;13.432;2024-02-28T09:36:54;23.77;;;13.47;;
4806;SDS011;2417;52.482;13.432;2024-02-28T09:39:22;25.13;;;13.40;;
4806;SDS011;2417;52.482;13.432;2024-02-28T09:41:50;20.33;;;11.70;;
4806;SDS011;2417;52.482;13.432;2024-02-28T09:44:18;22.93;;;12.50;;
4806;SDS011;2417;52.482;13.432;2024-02-28T09:46:49;20.80;;;11.87;;
4806;SDS011;2417;52.482;13.432;2024-02-28T09:49:17;21.80;;;10.83;;
4806;SDS011;2417;52.482;13.432;2024-02-28T09:51:46;26.30;;;14.07;;
4806;SDS011;2417;52.482;13.432;2024-02-28T09:54:18;29.10;;;15.27;;
4806;SDS011;2417;52.482;13.432;2024-02-28T09:56:47;31.00;;;16.10;;
4806;SDS011;2417;52.482;13.432;2024-02-28T09:59:16;22.77;;;10.83;;
4806;SDS011;2417;52.482;13.432;2024-02-28T10:01:49;20.03;;;11.40;;
4806;SDS011;2417;52.482;13.432;2024-02-28T10:04:19;22.40;;;11.20;;
4806;SDS011;2417;52.482;13.432;2024-02-28T10:06:48;23.00;;;12.30;;
4806;SDS011;2417;52.482;13.432;2024-02-28T10:09:18;25.70;;;12.47;;
4806;SDS011;2417;52.482;13.432;2024-02-28T10:11:46;26.13;;;13.80;;
4806;SDS011;2417;52.482;13.432;2024-02-28T10:14:16;26.40;;;13.00;;
4806;SDS011;2417;52.482;13.432;2024-02-28T10:16:45;25.70;;;13.70;;
4806;SDS011;2417;52.482;13.432;2024-02-28T10:19:13;26.20;;;12.03;;
4806;SDS011;2417;52.482;13.432;2024-02-28T10:21:41;23.00;;;11.87;;
4806;SDS011;2417;52.482;13.432;2024-02-28T10:24:11;29.57;;;14.07;;
4806;SDS011;2417;52.482;13.432;2024-02-28T10:26:44;30.30;;;15.87;;
4806;SDS011;2417;52.482;13.432;2024-02-28T10:29:12;29.50;;;15.30;;
4806;SDS011;2417;52.482;13.432;2024-02-28T10:31:41;28.60;;;14.90;;
4806;SDS011;2417;52.482;13.432;2024-02-28T10:34:09;29.07;;;15.53;;
4806;SDS011;2417;52.482;13.432;2024-02-28T10:36:37;29.83;;;15.60;;
4806;SDS011;2417;52.482;13.432;2024-02-28T10:39:05;30.70;;;14.93;;
4806;SDS011;2417;52.482;13.432;2024-02-28T10:41:34;31.03;;;14.93;;
4806;SDS011;2417;52.482;13.432;2024-02-28T10:44:03;27.37;;;14.40;;
4806;SDS011;2417;52.482;13.432;2024-02-28T10:46:31;28.77;;;15.53;;
4806;SDS011;2417;52.482;13.432;2024-02-28T10:49:03;34.30;;;17.47;;
4806;SDS011;2417;52.482;13.432;2024-02-28T10:51:33;33.40;;;16.67;;
4806;SDS011;2417;52.482;13.432;2024-02-28T10:54:05;35.40;;;18.03;;
4806;SDS011;2417;52.482;13.432;2024-02-28T10:56:37;32.70;;;16.40;;
4806;SDS011;2417;52.482;13.432;2024-02-28T10:59:07;29.30;;;15.10;;
4806;SDS011;2417;52.482;13.432;2024-02-28T11:01:39;28.67;;;15.60;;
4806;SDS011;2417;52.482;13.432;2024-02-28T11:04:11;30.87;;;17.50;;
4806;SDS011;2417;52.482;13.432;2024-02-28T11:06:47;35.30;;;19.60;;
4806;SDS011;2417;52.482;13.432;2024-02-28T11:09:18;34.90;;;18.03;;
4806;SDS011;2417;52.482;13.432;2024-02-28T11:11:49;31.57;;;16.80;;
4806;SDS011;2417;52.482;13.432;2024-02-28T11:14:20;30.00;;;15.83;;
4806;SDS011;2417;52.482;13.432;2024-02-28T11:16:59;28.83;;;15.47;;
4806;SDS011;2417;52.482;13.432;2024-02-28T11:19:27;34.93;;;17.03;;
4806;SDS011;2417;52.482;13.432;2024-02-28T11:21:56;29.23;;;15.50;;
4806;SDS011;2417;52.482;13.432;2024-02-28T11:24:24;34.67;;;17.07;;
4806;SDS011;2417;52.482;13.432;2024-02-28T11:26:52;27.27;;;14.73;;
4806;SDS011;2417;52.482;13.432;2024-02-28T11:29:25;28.90;;;15.50;;
4806;SDS011;2417;52.482;13.432;2024-02-28T11:31:54;24.57;;;13.17;;
4806;SDS011;2417;52.482;13.432;2024-02-28T11:34:22;27.27;;;14.90;;
4806;SDS011;2417;52.482;13.432;2024-02-28T11:36:52;25.47;;;14.00;;
4806;SDS011;2417;52.482;13.432;2024-02-28T11:39:24;26.50;;;15.10;;
4806;SDS011;2417;52.482;13.432;2024-02-28T11:41:53;30.80;;;15.27;;
4806;SDS011;2417;52.482;13.432;2024-02-28T11:44:20;26.27;;;14.90;;
4806;SDS011;2417;52.482;13.432;2024-02-28T11:46:50;27.47;;;14.20;;
4806;SDS011;2417;52.482;13.432;2024-02-28T11:49:18;23.87;;;13.70;;
4806;SDS011;2417;52.482;13.432;2024-02-28T11:51:46;28.80;;;14.80;;
4806;SDS011;2417;52.482;13.432;2024-02-28T11:54:15;30.80;;;13.70;;
4806;SDS011;2417;52.482;13.432;2024-02-28T11:56:43;27.27;;;14.57;;
4806;SDS011;2417;52.482;13.432;2024-02-28T11:59:11;25.30;;;14.50;;
4806;SDS011;2417;52.482;13.432;2024-02-28T12:01:40;28.40;;;15.87;;
4806;SDS011;2417;52.482;13.432;2024-02-28T12:04:13;25.50;;;13.97;;
4806;SDS011;2417;52.482;13.432;2024-02-28T12:06:41;25.80;;;14.07;;
4806;SDS011;2417;52.482;13.432;2024-02-28T12:09:10;32.07;;;17.93;;
4806;SDS011;2417;52.482;13.432;2024-02-28T12:11:50;22.13;;;12.57;;
4806;SDS011;2417;52.482;13.432;2024-02-28T12:14:19;28.10;;;13.43;;
4806;SDS011;2417;52.482;13.432;2024-02-28T12:16:47;22.73;;;13.40;;
4806;SDS011;2417;52.482;13.432;2024-02-28T12:19:17;24.13;;;13.33;;
4806;SDS011;2417;52.482;13.432;2024-02-28T12:21:47;24.67;;;14.10;;
4806;SDS011;2417;52.482;13.432;2024-02-28T12:24:15;30.67;;;14.27;;
4806;SDS011;2417;52.482;13.432;2024-02-28T12:26:43;23.67;;;13.40;;
4806;SDS011;2417;52.482;13.432;2024-02-28T12:29:12;28.20;;;13.77;;
4806;SDS011;2417;52.482;13.432;2024-02-28T12:31:41;28.10;;;13.50;;
4806;SDS011;2417;52.482;13.432;2024-02-28T12:34:09;24.60;;;14.17;;
4806;SDS011;2417;52.482;13.432;2024-02-28T12:36:38;22.87;;;12.80;;
4806;SDS011;2417;52.482;13.432;2024-02-28T12:39:09;32.03;;;13.93;;
4806;SDS011;2417;52.482;13.432;2024-02-28T12:41:38;25.10;;;13.30;;
4806;SDS011;2417;52.482;13.432;2024-02-28T12:44:06;24.13;;;13.30;;
4806;SDS011;2417;52.482;13.432;2024-02-28T12:46:34;23.17;;;12.90;;
4806;SDS011;2417;52.482;13.432;2024-02-28T12:49:03;33.20;;;18.50;;
4806;SDS011;2417;52.482;13.432;2024-02-28T12:51:39;34.80;;;18.70;;
4806;SDS011;2417;52.482;13.432;2024-02-28T12:54:08;25.43;;;12.87;;
4806;SDS011;2417;52.482;13.432;2024-02-28T12:56:36;22.30;;;13.47;;
4806;SDS011;2417;52.482;13.432;2024-02-28T12:59:04;24.23;;;14.73;;
4806;SDS011;2417;52.482;13.432;2024-02-28T13:01:32;25.60;;;13.80;;
4806;SDS011;2417;52.482;13.432;2024-02-28T13:04:00;23.13;;;12.80;;
4806;SDS011;2417;52.482;13.432;2024-02-28T13:06:29;21.90;;;12.30;;
4806;SDS011;2417;52.482;13.432;2024-02-28T13:08:58;19.53;;;10.77;;
4806;SDS011;2417;52.482;13.432;2024-02-28T13:11:26;20.90;;;11.70;;
4806;SDS011;2417;52.482;13.432;2024-02-28T13:13:54;23.53;;;12.87;;
4806;SDS011;2417;52.482;13.432;2024-02-28T13:16:23;25.63;;;12.67;;
4806;SDS011;2417;52.482;13.432;2024-02-28T13:18:51;27.07;;;13.40;;
4806;SDS011;2417;52.482;13.432;2024-02-28T13:21:19;25.20;;;13.60;;
4806;SDS011;2417;52.482;13.432;2024-02-28T13:23:47;20.40;;;11.30;;
4806;SDS011;2417;52.482;13.432;2024-02-28T13:26:16;18.70;;;10.70;;
4806;SDS011;2417;52.482;13.432;2024-02-28T13:28:46;17.67;;;10.00;;
4806;SDS011;2417;52.482;13.432;2024-02-28T13:31:19;20.70;;;11.20;;
4806;SDS011;2417;52.482;13.432;2024-02-28T13:33:47;22.03;;;11.90;;
4806;SDS011;2417;52.482;13.432;2024-02-28T13:36:16;20.57;;;10.10;;
4806;SDS011;2417;52.482;13.432;2024-02-28T13:38:44;22.87;;;11.70;;
4806;SDS011;2417;52.482;13.432;2024-02-28T13:41:12;26.50;;;12.27;;
4806;SDS011;2417;52.482;13.432;2024-02-28T13:43:41;24.13;;;11.90;;
4806;SDS011;2417;52.482;13.432;2024-02-28T13:46:09;20.90;;;11.40;;
4806;SDS011;2417;52.482;13.432;2024-02-28T13:48:38;22.77;;;11.83;;
4806;SDS011;2417;52.482;13.432;2024-02-28T13:51:06;20.27;;;10.33;;
4806;SDS011;2417;52.482;13.432;2024-02-28T13:53:34;18.50;;;10.23;;
4806;SDS011;2417;52.482;13.432;2024-02-28T13:56:01;23.73;;;11.50;;
4806;SDS011;2417;52.482;13.432;2024-02-28T13:58:29;17.77;;;9.93;;
4806;SDS011;2417;52.482;13.432;2024-02-28T14:01:10;20.23;;;10.63;;
4806;SDS011;2417;52.482;13.432;2024-02-28T14:03:38;18.23;;;9.20;;
4806;SDS011;2417;52.482;13.432;2024-02-28T14:06:09;22.27;;;9.93;;
4806;SDS011;2417;52.482;13.432;2024-02-28T14:08:36;24.37;;;11.70;;
4806;SDS011;2417;52.482;13.432;2024-02-28T14:11:09;32.07;;;11.77;;
4806;SDS011;2417;52.482;13.432;2024-02-28T14:13:37;22.80;;;10.80;;
4806;SDS011;2417;52.482;13.432;2024-02-28T14:16:07;21.23;;;10.73;;
4806;SDS011;2417;52.482;13.432;2024-02-28T14:18:37;18.50;;;10.00;;
4806;SDS011;2417;52.482;13.432;2024-02-28T14:21:05;20.47;;;11.00;;
4806;SDS011;2417;52.482;13.432;2024-02-28T14:23:34;22.53;;;11.63;;
4806;SDS011;2417;52.482;13.432;2024-02-28T14:26:02;17.97;;;9.27;;
4806;SDS011;2417;52.482;13.432;2024-02-28T14:28:30;18.13;;;9.80;;
4806;SDS011;2417;52.482;13.432;2024-02-28T14:30:59;21.20;;;10.73;;
4806;SDS011;2417;52.482;13.432;2024-02-28T14:33:26;22.13;;;11.03;;
4806;SDS011;2417;52.482;13.432;2024-02-28T14:35:57;25.80;;;11.00;;
4806;SDS011;2417;52.482;13.432;2024-02-28T14:38:26;23.03;;;9.90;;
4806;SDS011;2417;52.482;13.432;2024-02-28T14:40:53;18.60;;;9.57;;
4806;SDS011;2417;52.482;13.432;2024-02-28T14:43:22;23.23;;;9.80;;
4806;SDS011;2417;52.482;13.432;2024-02-28T14:45:50;18.90;;;9.77;;
4806;SDS011;2417;52.482;13.432;2024-02-28T14:48:20;19.80;;;9.80;;